Time;durP1;ratioP1;P1;durP2;ratioP2;P2;SDS_P1;SDS_P2;PMS_P1;PMS_P2;Temp;Humidity;BMP_temperature;BMP_pressure;BME280_temperature;BME280_humidity;BME280_pressure;Samples;Min_cycle;Max_cycle;Signal;HPM_P1;HPM_P2
2023/05/14 00:01:26;;;;;;;5.93;5.00;;;;;;;13.66;69.26;101046.34;4974798;28;20213;-73
2023/05/14 00:03:54;;;;;;;5.53;5.03;;;;;;;13.69;69.44;101046.28;4975269;28;20202;-73
2023/05/14 00:06:21;;;;;;;5.03;4.73;;;;;;;13.61;69.15;101057.84;4975105;28;20207;-73
2023/05/14 00:08:47;;;;;;;6.00;5.60;;;;;;;13.57;68.80;101064.03;4975034;28;20230;-73
2023/05/14 00:11:14;;;;;;;5.73;5.17;;;;;;;13.43;68.95;101074.81;4975111;28;20264;-73
2023/05/14 00:13:40;;;;;;;6.90;4.97;;;;;;;13.32;69.45;101069.81;4974891;28;20235;-73
2023/05/14 00:16:07;;;;;;;5.63;5.13;;;;;;;13.28;69.71;101063.72;4974658;28;20245;-73
2023/05/14 00:18:33;;;;;;;5.10;4.70;;;;;;;13.20;70.21;101049.91;4970491;28;20231;-73
2023/05/14 00:21:01;;;;;;;5.80;5.30;;;;;;;13.19;71.05;101027.19;4974580;28;20570;-73
2023/05/14 00:23:28;;;;;;;7.00;4.93;;;;;;;13.06;71.71;101013.50;4973504;28;20215;-73
2023/05/14 00:25:54;;;;;;;5.17;4.87;;;;;;;13.07;71.43;100998.63;4974699;28;20290;-73
2023/05/14 00:28:21;;;;;;;6.10;5.60;;;;;;;13.10;72.21;100982.81;4974526;28;20229;-73
2023/05/14 00:30:48;;;;;;;5.43;5.03;;;;;;;12.98;72.31;100975.22;4974274;28;20233;-73
2023/05/14 00:33:14;;;;;;;5.10;4.70;;;;;;;12.81;71.92;100970.31;4974623;28;20237;-73
2023/05/14 00:35:41;;;;;;;4.90;4.50;;;;;;;12.77;72.40;100966.91;4974897;28;20215;-73
2023/05/14 00:38:09;;;;;;;5.50;5.20;;;;;;;12.87;72.07;100950.09;4974400;28;20238;-73
2023/05/14 00:40:36;;;;;;;5.73;5.33;;;;;;;12.87;72.89;100946.63;4974292;28;20240;-73
2023/05/14 00:43:02;;;;;;;5.20;4.80;;;;;;;12.87;73.11;100931.75;4974211;28;20240;-73
2023/05/14 00:45:29;;;;;;;5.53;5.13;;;;;;;12.76;74.00;100910.16;4974494;28;20209;-73
2023/05/14 00:47:55;;;;;;;5.23;4.83;;;;;;;12.79;74.13;100897.00;4972444;28;20266;-73
2023/05/14 00:50:22;;;;;;;5.03;4.73;;;;;;;12.81;74.21;100899.59;4974301;28;20211;-73
2023/05/14 00:52:49;;;;;;;5.90;5.00;;;;;;;12.84;73.75;100902.13;4974060;28;20229;-72
2023/05/14 00:55:17;;;;;;;5.27;4.87;;;;;;;12.88;73.45;100909.91;4974046;28;20224;-73
2023/05/14 00:57:44;;;;;;;5.00;4.70;;;;;;;12.90;72.94;100915.09;4973908;28;20225;-73
2023/05/14 01:00:11;;;;;;;5.20;4.90;;;;;;;12.85;73.76;100911.72;4974175;28;20214;-73
2023/05/14 01:02:37;;;;;;;5.10;4.80;;;;;;;12.76;73.45;100915.38;4973940;28;20206;-73
2023/05/14 01:05:05;;;;;;;5.43;4.93;;;;;;;12.65;73.37;100913.00;4974085;28;20258;-73
2023/05/14 01:07:37;;;;;;;5.97;5.10;;;;;;;12.58;73.90;100921.84;4973962;28;20233;-73
2023/05/14 01:10:11;;;;;;;5.23;4.93;;;;;;;12.54;74.84;100914.09;4973939;28;20206;-72
2023/05/14 01:12:45;;;;;;;5.17;4.77;;;;;;;12.55;74.59;100894.84;4973595;28;20592;-73
2023/05/14 01:15:16;;;;;;;5.63;5.23;;;;;;;12.56;75.11;100899.22;4973644;28;20264;-73
2023/05/14 01:17:48;;;;;;;5.20;4.80;;;;;;;12.54;74.25;100894.00;4973410;28;20702;-73
2023/05/14 01:20:15;;;;;;;5.47;5.17;;;;;;;12.52;74.84;100901.03;4973740;28;20261;-73
2023/05/14 01:22:43;;;;;;;5.50;5.20;;;;;;;12.41;74.65;100901.25;4973476;28;20204;-73
2023/05/14 01:25:10;;;;;;;5.70;5.23;;;;;;;12.38;75.04;100893.44;4973770;28;20208;-73
2023/05/14 01:27:42;;;;;;;5.63;5.23;;;;;;;12.35;75.18;100898.75;4973687;28;20234;-73
2023/05/14 01:30:17;;;;;;;5.63;5.30;;;;;;;12.36;74.82;100887.38;4973674;28;20228;-73
2023/05/14 01:32:47;;;;;;;5.63;5.23;;;;;;;12.32;75.85;100877.84;4973256;28;20584;-73
2023/05/14 01:35:14;;;;;;;5.60;5.20;;;;;;;12.30;76.50;100869.16;4972971;28;20681;-73
2023/05/14 01:37:43;;;;;;;5.53;5.13;;;;;;;12.35;76.30;100851.63;4973480;28;20716;-73
2023/05/14 01:40:11;;;;;;;5.57;5.27;;;;;;;12.31;77.15;100845.59;4973399;28;20260;-73
2023/05/14 01:42:38;;;;;;;5.60;5.20;;;;;;;12.30;77.58;100824.66;4973312;28;20279;-73
2023/05/14 01:45:05;;;;;;;5.77;5.23;;;;;;;12.30;78.59;100807.19;4973683;28;20369;-73
2023/05/14 01:47:32;;;;;;;6.07;5.67;;;;;;;12.37;78.56;100787.00;4973077;28;20229;-73
2023/05/14 01:49:58;;;;;;;5.90;5.50;;;;;;;12.43;78.35;100786.03;4972925;28;20630;-73
2023/05/14 01:52:24;;;;;;;5.07;4.77;;;;;;;12.42;78.77;100785.13;4973303;28;20208;-73
2023/05/14 01:54:52;;;;;;;5.97;5.47;;;;;;;12.35;77.97;100799.28;4973267;28;20640;-73
2023/05/14 01:57:20;;;;;;;6.30;5.70;;;;;;;12.31;77.73;100803.69;4973207;28;20208;-73
2023/05/14 01:59:46;;;;;;;5.70;5.30;;;;;;;12.36;78.00;100806.22;4973347;28;20240;-73
2023/05/14 02:02:13;;;;;;;6.17;5.77;;;;;;;12.31;77.90;100808.09;4972878;28;20618;-73
2023/05/14 02:04:39;;;;;;;6.50;6.00;;;;;;;12.27;77.57;100815.13;4973414;28;20208;-73
2023/05/14 02:07:06;;;;;;;6.27;5.87;;;;;;;12.20;77.91;100820.50;4973243;28;20320;-73
2023/05/14 02:09:32;;;;;;;6.03;5.57;;;;;;;12.05;78.22;100821.66;4972669;28;20257;-73
2023/05/14 02:12:00;;;;;;;5.97;5.50;;;;;;;12.01;78.28;100815.63;4972808;28;20262;-73
2023/05/14 02:14:26;;;;;;;5.90;5.50;;;;;;;11.97;78.10;100805.22;4972882;28;20228;-73
2023/05/14 02:16:53;;;;;;;6.47;6.00;;;;;;;11.89;78.17;100815.84;4972653;28;20212;-73
2023/05/14 02:19:19;;;;;;;7.13;5.67;;;;;;;11.76;78.78;100809.94;4972668;28;20713;-73
2023/05/14 02:21:46;;;;;;;6.80;6.40;;;;;;;11.80;78.86;100797.69;4972946;28;20212;-73
2023/05/14 02:24:13;;;;;;;5.90;5.50;;;;;;;11.69;79.29;100798.75;4972989;28;20267;-73
2023/05/14 02:26:39;;;;;;;5.80;5.30;;;;;;;11.56;79.61;100780.69;4972960;28;20210;-73
2023/05/14 02:29:08;;;;;;;6.17;5.77;;;;;;;11.58;79.59;100778.91;4972822;28;20259;-73
2023/05/14 02:31:34;;;;;;;6.03;5.63;;;;;;;11.64;79.53;100778.78;4972697;28;20208;-73
2023/05/14 02:34:01;;;;;;;5.77;5.40;;;;;;;11.63;79.64;100780.53;4972755;28;20638;-73
2023/05/14 02:36:27;;;;;;;5.73;5.37;;;;;;;11.65;79.11;100772.66;4972731;28;20244;-73
2023/05/14 02:38:54;;;;;;;6.23;5.73;;;;;;;11.72;78.77;100787.34;4972840;28;20231;-73
2023/05/14 02:41:21;;;;;;;6.90;6.33;;;;;;;11.58;79.05;100792.84;4973023;28;20211;-73
2023/05/14 02:43:47;;;;;;;6.13;5.73;;;;;;;11.53;78.96;100794.66;4972614;28;20699;-73
2023/05/14 02:46:15;;;;;;;6.67;6.07;;;;;;;11.46;79.73;100793.06;4972622;28;20208;-73
2023/05/14 02:48:41;;;;;;;5.63;5.33;;;;;;;11.45;80.05;100778.25;4976457;28;20275;-73
2023/05/14 02:51:08;;;;;;;6.50;5.97;;;;;;;11.43;80.97;100769.56;4976204;28;20267;-73
2023/05/14 02:53:34;;;;;;;5.97;5.27;;;;;;;11.43;81.44;100753.88;4976409;28;20238;-73
2023/05/14 02:56:01;;;;;;;6.73;6.23;;;;;;;11.46;81.44;100748.63;4976489;28;20220;-73
2023/05/14 02:58:27;;;;;;;5.87;5.47;;;;;;;11.44;81.32;100747.78;4975978;28;20788;-73
2023/05/14 03:00:53;;;;;;;6.57;5.90;;;;;;;11.38;81.67;100745.25;4975959;28;20271;-73
2023/05/14 03:03:21;;;;;;;6.57;6.07;;;;;;;11.39;82.47;100728.69;4975716;28;20256;-73
2023/05/14 03:05:48;;;;;;;7.33;6.10;;;;;;;11.41;81.97;100727.75;4976473;28;20206;-73
2023/05/14 03:08:14;;;;;;;7.57;6.90;;;;;;;11.36;81.54;100741.78;4976145;28;20229;-73
2023/05/14 03:10:41;;;;;;;6.33;5.80;;;;;;;11.22;82.84;100732.47;4975956;28;20213;-73
2023/05/14 03:13:07;;;;;;;7.20;6.50;;;;;;;11.19;84.22;100711.59;4975807;28;20260;-73
2023/05/14 03:15:34;;;;;;;6.43;5.97;;;;;;;11.23;84.14;100694.97;4976188;28;20258;-73
2023/05/14 03:18:00;;;;;;;7.10;6.50;;;;;;;11.26;84.43;100684.47;4975625;28;20232;-73
2023/05/14 03:20:28;;;;;;;6.07;5.67;;;;;;;11.32;83.63;100691.34;4975800;28;20279;-73
2023/05/14 03:22:55;;;;;;;6.70;6.10;;;;;;;11.29;83.64;100701.84;4975819;28;20611;-73
2023/05/14 03:25:21;;;;;;;6.50;5.77;;;;;;;11.28;83.10;100701.00;4975775;28;20302;-73
2023/05/14 03:27:48;;;;;;;6.07;5.67;;;;;;;11.23;82.88;100707.19;4974734;28;20318;-73
2023/05/14 03:30:14;;;;;;;6.93;6.43;;;;;;;11.18;82.78;100722.94;4975442;28;20240;-73
2023/05/14 03:32:41;;;;;;;6.60;6.10;;;;;;;11.13;82.34;100728.22;4975662;28;20208;-73
2023/05/14 03:35:08;;;;;;;6.30;5.80;;;;;;;11.11;82.46;100729.16;4975848;28;20234;-73
2023/05/14 03:37:36;;;;;;;6.70;6.10;;;;;;;11.11;81.71;100740.47;4975525;28;20364;-73
2023/05/14 03:40:03;;;;;;;6.87;6.33;;;;;;;11.05;81.47;100763.22;4975570;28;20204;-73
2023/05/14 03:42:29;;;;;;;7.13;6.63;;;;;;;11.06;81.68;100765.81;4975212;28;20248;-73
2023/05/14 03:44:56;;;;;;;6.93;6.30;;;;;;;10.92;81.91;100760.81;4975766;28;20204;-72
2023/05/14 03:47:22;;;;;;;6.40;6.07;;;;;;;10.97;82.20;100754.66;4973757;28;20200;-73
2023/05/14 03:49:49;;;;;;;7.07;6.57;;;;;;;10.94;82.43;100750.31;4975061;28;20216;-72
2023/05/14 03:52:16;;;;;;;6.87;6.40;;;;;;;10.93;82.58;100746.84;4975280;28;20271;-72
2023/05/14 03:57:12;;;;;;;6.50;6.10;;;;;;;10.90;82.93;100730.34;4932969;29;20221;-73
2023/05/14 03:59:38;;;;;;;6.80;6.20;;;;;;;10.91;82.91;100738.16;4936481;29;20213;-73
2023/05/14 04:02:04;;;;;;;6.70;6.30;;;;;;;10.97;82.79;100734.59;4936838;29;20466;-73
2023/05/14 04:04:31;;;;;;;6.70;6.30;;;;;;;10.93;82.92;100736.41;4936811;29;20299;-73
2023/05/14 04:06:57;;;;;;;6.43;6.03;;;;;;;10.99;83.15;100734.59;4936549;29;20625;-73
2023/05/14 04:09:24;;;;;;;7.60;7.00;;;;;;;11.01;83.58;100735.41;4936536;29;20280;-73
2023/05/14 04:11:50;;;;;;;6.70;6.13;;;;;;;11.03;83.63;100721.44;4936555;29;20240;-73
2023/05/14 04:14:18;;;;;;;6.67;6.17;;;;;;;11.00;84.58;100721.50;4936563;29;20231;-73
2023/05/14 04:16:44;;;;;;;6.30;5.90;;;;;;;10.98;84.41;100709.34;4936493;29;20249;-73
2023/05/14 04:19:11;;;;;;;7.13;6.43;;;;;;;11.00;84.37;100707.56;4936148;29;20268;-73
2023/05/14 04:21:37;;;;;;;6.80;6.30;;;;;;;11.06;84.21;100713.56;4936365;29;20252;-73
2023/05/14 04:24:05;;;;;;;6.80;6.30;;;;;;;11.12;84.89;100710.00;4936328;29;20209;-73
2023/05/14 04:26:31;;;;;;;7.50;7.00;;;;;;;11.12;84.98;100710.00;4936282;29;20776;-71
2023/05/14 04:29:01;;;;;;;6.90;6.47;;;;;;;11.15;84.45;100704.69;4936307;29;20297;-71
2023/05/14 04:31:30;;;;;;;7.20;6.53;;;;;;;11.21;84.61;100716.81;4936344;29;20216;-73
2023/05/14 04:33:56;;;;;;;6.87;6.27;;;;;;;11.23;85.34;100709.78;4936039;29;20243;-73
2023/05/14 04:36:23;;;;;;;7.33;6.63;;;;;;;11.22;86.20;100695.88;4936356;29;20750;-73
2023/05/14 04:38:50;;;;;;;7.43;6.70;;;;;;;11.20;87.15;100678.47;4935810;29;20313;-73
2023/05/14 04:41:16;;;;;;;7.90;7.37;;;;;;;11.17;87.44;100666.34;4935631;29;20691;-70
2023/05/14 04:43:43;;;;;;;8.27;7.67;;;;;;;11.21;86.98;100661.94;4936116;29;20265;-72
2023/05/14 04:46:10;;;;;;;7.53;6.93;;;;;;;11.31;85.96;100674.78;4935888;29;20683;-72
2023/05/14 04:48:38;;;;;;;7.40;6.90;;;;;;;11.28;86.80;100680.09;4935480;29;20234;-72
2023/05/14 04:51:04;;;;;;;7.63;7.13;;;;;;;11.29;87.34;100675.72;4935719;29;20260;-72
2023/05/14 04:53:30;;;;;;;7.80;7.13;;;;;;;11.32;87.44;100663.47;4935507;29;20210;-72
2023/05/14 04:55:57;;;;;;;7.73;7.23;;;;;;;11.40;87.74;100670.31;4935557;29;20280;-72
2023/05/14 04:58:23;;;;;;;7.13;6.57;;;;;;;11.48;87.43;100666.66;4935596;29;20296;-72
2023/05/14 05:00:50;;;;;;;7.07;6.57;;;;;;;11.61;86.59;100685.56;4935301;29;20745;-72
2023/05/14 05:03:16;;;;;;;7.30;6.80;;;;;;;11.68;86.34;100691.56;4935592;29;20213;-72
2023/05/14 05:05:44;;;;;;;8.50;8.00;;;;;;;11.69;86.92;100691.53;4935310;29;20610;-72
2023/05/14 05:08:11;;;;;;;7.10;6.60;;;;;;;11.74;87.46;100691.44;4935590;29;20234;-71
2023/05/14 05:10:37;;;;;;;7.13;6.73;;;;;;;11.81;87.11;100697.38;4934853;29;20205;-71
2023/05/14 05:13:03;;;;;;;6.63;6.13;;;;;;;11.83;87.00;100699.09;4935531;29;20273;-72
2023/05/14 05:15:30;;;;;;;6.87;6.47;;;;;;;11.87;86.86;100703.38;4935589;29;20289;-72
2023/05/14 05:17:56;;;;;;;7.37;6.87;;;;;;;11.94;86.34;100716.38;4935055;29;20265;-72
2023/05/14 05:20:23;;;;;;;7.97;7.27;;;;;;;12.05;85.90;100722.22;4935050;29;20277;-72
2023/05/14 05:22:51;;;;;;;7.70;7.10;;;;;;;12.08;86.34;100723.03;4935091;29;20620;-71
2023/05/14 05:25:18;;;;;;;6.60;6.20;;;;;;;12.08;86.75;100720.41;4935479;29;20206;-72
2023/05/14 05:27:44;;;;;;;7.83;6.67;;;;;;;12.12;87.43;100711.59;4935130;29;20265;-72
2023/05/14 05:30:12;;;;;;;6.60;6.20;;;;;;;12.14;87.34;100695.03;4935009;29;20683;-72
2023/05/14 05:32:38;;;;;;;6.67;6.27;;;;;;;12.22;87.07;100704.41;4934960;29;20268;-71
2023/05/14 05:35:05;;;;;;;7.10;6.70;;;;;;;12.36;85.93;100730.28;4934805;29;20315;-72
2023/05/14 05:37:32;;;;;;;7.97;7.37;;;;;;;12.38;85.84;100730.28;4935127;29;20229;-72
2023/05/14 05:39:59;;;;;;;7.00;6.40;;;;;;;12.41;86.38;100738.94;4935158;29;20213;-72
2023/05/14 05:42:26;;;;;;;7.23;6.83;;;;;;;12.46;86.07;100730.97;4934820;29;20237;-72
2023/05/14 05:44:52;;;;;;;8.20;7.70;;;;;;;12.58;85.48;100741.16;4934988;29;20567;-72
2023/05/14 05:47:19;;;;;;;7.57;6.97;;;;;;;12.66;85.99;100754.94;4934549;29;20269;-72
2023/05/14 05:49:45;;;;;;;6.97;6.47;;;;;;;12.69;86.23;100739.16;4934560;29;20684;-72
2023/05/14 05:52:12;;;;;;;6.93;6.37;;;;;;;12.66;86.85;100741.84;4934802;29;20206;-71
2023/05/14 05:54:38;;;;;;;7.13;6.73;;;;;;;12.76;85.97;100736.41;4934786;29;20327;-72
2023/05/14 05:57:06;;;;;;;7.97;7.30;;;;;;;12.86;84.63;100767.59;4934557;29;20684;-72
2023/05/14 05:59:32;;;;;;;7.80;7.30;;;;;;;12.97;83.50;100795.31;4934698;29;20225;-72
2023/05/14 06:01:59;;;;;;;6.97;6.57;;;;;;;13.01;82.06;100831.88;4934356;29;20215;-72
2023/05/14 06:04:25;;;;;;;7.30;6.80;;;;;;;13.09;80.78;100865.78;4935006;29;20210;-75
2023/05/14 06:06:52;;;;;;;7.50;7.00;;;;;;;13.16;80.48;100893.59;4934484;29;20243;-71
2023/05/14 06:09:18;;;;;;;6.90;6.50;;;;;;;13.20;80.41;100912.72;4934740;29;20419;-71
2023/05/14 06:11:44;;;;;;;8.33;7.73;;;;;;;13.23;81.75;100910.88;4934484;29;20210;-71
2023/05/14 06:14:12;;;;;;;8.27;7.57;;;;;;;13.30;81.89;100886.31;4934690;29;20263;-76
2023/05/14 06:16:39;;;;;;;8.13;7.47;;;;;;;13.38;80.63;100899.25;4934246;29;20759;-76
2023/05/14 06:19:05;;;;;;;7.67;7.07;;;;;;;13.46;79.30;100927.91;4934708;29;20285;-76
2023/05/14 06:21:31;;;;;;;7.40;6.90;;;;;;;13.56;78.93;100954.75;4936788;29;20221;-75
2023/05/14 06:23:58;;;;;;;7.80;7.30;;;;;;;13.61;78.82;100966.88;4938574;29;20215;-76
2023/05/14 06:26:24;;;;;;;8.03;7.43;;;;;;;13.62;79.08;100971.25;4938576;29;20671;-76
2023/05/14 06:28:51;;;;;;;8.57;7.77;;;;;;;13.63;79.71;100966.84;4938255;29;20234;-76
2023/05/14 06:31:18;;;;;;;7.83;7.33;;;;;;;13.69;78.62;100969.34;4938025;29;20586;-77
2023/05/14 06:33:45;;;;;;;8.40;7.90;;;;;;;13.76;78.46;100977.94;4939802;29;20213;-77
2023/05/14 06:36:11;;;;;;;8.13;7.63;;;;;;;13.80;78.02;100990.94;4938235;29;20237;-75
2023/05/14 06:38:38;;;;;;;8.50;7.80;;;;;;;13.87;77.30;100997.78;4938585;29;20233;-76
2023/05/14 06:41:04;;;;;;;8.70;8.20;;;;;;;13.94;77.55;101010.75;4938186;29;20285;-77
2023/05/14 06:43:31;;;;;;;8.80;8.00;;;;;;;13.98;77.93;101007.16;4939358;29;20216;-77
2023/05/14 06:45:57;;;;;;;8.53;7.93;;;;;;;13.98;77.22;101009.78;4938614;29;20211;-76
2023/05/14 06:48:26;;;;;;;8.33;7.73;;;;;;;13.99;77.29;101016.75;4937906;29;20227;-76
2023/05/14 06:50:53;;;;;;;7.93;7.33;;;;;;;13.97;77.17;101015.91;4942456;29;20210;-79
2023/05/14 06:53:19;;;;;;;8.73;8.20;;;;;;;13.93;77.87;101009.00;4944297;29;20211;-79
2023/05/14 06:55:47;;;;;;;8.40;7.90;;;;;;;13.92;78.85;100991.56;4944251;29;20233;-79
2023/05/14 06:58:13;;;;;;;8.47;7.77;;;;;;;13.96;78.55;100978.31;4943965;29;20582;-79
2023/05/14 07:00:40;;;;;;;8.10;7.60;;;;;;;14.01;77.79;100980.81;4943543;29;20215;-79
2023/05/14 07:03:07;;;;;;;8.03;7.43;;;;;;;14.05;77.54;100991.22;4943934;29;20236;-79
2023/05/14 07:05:34;;;;;;;9.27;8.57;;;;;;;14.13;76.79;101000.66;4942338;29;20667;-79
2023/05/14 07:08:01;;;;;;;7.77;7.27;;;;;;;14.19;76.19;101013.63;4942062;29;20231;-76
2023/05/14 07:10:27;;;;;;;8.00;7.50;;;;;;;14.26;76.41;101017.84;4938945;29;20287;-78
2023/05/14 07:12:54;;;;;;;7.73;7.27;;;;;;;14.34;75.73;101039.53;4937756;29;20674;-76
2023/05/14 07:15:20;;;;;;;7.13;6.73;;;;;;;14.43;76.17;101041.03;4937627;29;20286;-76
2023/05/14 07:17:47;;;;;;;8.27;7.67;;;;;;;14.50;76.52;101029.47;4937375;29;20245;-76
2023/05/14 07:20:13;;;;;;;8.07;7.53;;;;;;;14.57;76.09;101035.47;4937271;29;20247;-76
2023/05/14 07:22:41;;;;;;;7.67;7.17;;;;;;;14.66;75.58;101037.88;4937238;29;20209;-76
2023/05/14 07:25:08;;;;;;;8.23;7.63;;;;;;;14.75;75.88;101039.41;4937219;29;20219;-75
2023/05/14 07:27:34;;;;;;;7.73;7.13;;;;;;;14.77;75.10;101042.84;4937025;29;20229;-75
2023/05/14 07:30:01;;;;;;;8.03;7.30;;;;;;;14.83;75.24;101051.44;4937424;29;20262;-76
2023/05/14 07:32:27;;;;;;;8.57;7.97;;;;;;;14.88;74.41;101059.19;4936550;29;20275;-76
2023/05/14 07:34:53;;;;;;;8.77;8.20;;;;;;;14.92;73.68;101073.09;4937279;29;20283;-75
2023/05/14 07:37:21;;;;;;;7.70;7.20;;;;;;;15.03;73.92;101086.84;4936980;29;20215;-76
2023/05/14 07:39:49;;;;;;;8.30;7.80;;;;;;;15.13;74.18;101085.69;4936944;29;20755;-76
2023/05/14 07:42:15;;;;;;;8.50;7.83;;;;;;;15.25;73.93;101089.72;4937085;29;20220;-76
2023/05/14 07:44:42;;;;;;;7.97;7.47;;;;;;;15.34;74.39;101075.44;4937212;29;20208;-76
2023/05/14 07:47:09;;;;;;;7.80;7.30;;;;;;;15.42;73.36;101083.97;4936749;29;20659;-76
2023/05/14 07:49:36;;;;;;;8.40;7.80;;;;;;;15.44;72.84;101096.22;4936717;29;20215;-76
2023/05/14 07:52:02;;;;;;;8.10;7.50;;;;;;;15.53;73.35;101102.09;4936595;29;20302;-76
2023/05/14 07:54:28;;;;;;;8.23;7.73;;;;;;;15.55;74.14;101095.88;4936421;29;20291;-76
2023/05/14 07:56:56;;;;;;;9.50;8.77;;;;;;;15.61;74.58;101060.63;4936788;29;20219;-76
2023/05/14 07:59:23;;;;;;;8.20;7.70;;;;;;;15.65;74.23;101060.50;4936946;29;20268;-75
2023/05/14 08:01:49;;;;;;;8.53;8.03;;;;;;;15.75;74.15;101061.09;4936782;29;20295;-76
2023/05/14 08:04:16;;;;;;;8.20;7.63;;;;;;;15.81;73.44;101063.53;4936525;29;20579;-76
2023/05/14 08:06:43;;;;;;;7.67;6.97;;;;;;;15.85;72.55;101090.66;4936566;29;20270;-76
2023/05/14 08:09:09;;;;;;;7.40;6.90;;;;;;;15.87;72.47;101105.47;4936405;29;20287;-76
2023/05/14 08:11:36;;;;;;;7.43;6.80;;;;;;;15.84;74.47;101079.25;4936645;29;20638;-76
2023/05/14 08:14:03;;;;;;;8.10;7.50;;;;;;;15.87;72.83;101075.66;4936625;29;20358;-76
2023/05/14 08:16:30;;;;;;;7.33;6.93;;;;;;;15.94;73.36;101084.25;4936481;29;20231;-76
2023/05/14 08:18:56;;;;;;;7.67;7.17;;;;;;;15.97;72.91;101087.63;4936000;29;20288;-76
2023/05/14 08:21:22;;;;;;;7.23;6.63;;;;;;;16.00;73.15;101094.59;4936128;29;20213;-76
2023/05/14 08:23:49;;;;;;;7.13;6.73;;;;;;;15.98;73.57;101085.88;4936001;29;20674;-76
2023/05/14 08:26:16;;;;;;;7.80;7.30;;;;;;;15.97;74.37;101070.97;4936386;29;20245;-76
2023/05/14 08:28:42;;;;;;;7.83;7.33;;;;;;;15.97;74.21;101060.44;4936182;29;20232;-77
2023/05/14 08:31:10;;;;;;;8.70;8.20;;;;;;;15.98;74.81;101051.66;4936078;29;20215;-76
2023/05/14 08:33:36;;;;;;;8.60;8.10;;;;;;;16.00;75.11;101026.97;4935946;29;20217;-76
2023/05/14 08:36:03;;;;;;;8.57;8.07;;;;;;;16.06;74.16;101018.88;4935859;29;20292;-76
2023/05/14 08:38:30;;;;;;;8.20;7.70;;;;;;;16.14;78.36;100958.06;4935920;29;20233;-76
2023/05/14 08:40:57;;;;;;;8.40;7.87;;;;;;;16.24;75.30;100942.81;4935976;29;20216;-76
2023/05/14 08:43:26;;;;;;;7.53;6.90;;;;;;;16.31;72.29;101011.94;4936182;29;20685;-76
2023/05/14 08:45:57;;;;;;;7.00;6.50;;;;;;;16.35;70.86;101068.88;4935111;29;20256;-77
2023/05/14 08:48:28;;;;;;;5.80;5.40;;;;;;;16.44;69.29;101118.66;4935475;29;20772;-76
2023/05/14 08:50:55;;;;;;;5.90;5.40;;;;;;;16.44;68.08;101153.78;4935097;29;20213;-76
2023/05/14 08:53:21;;;;;;;6.00;5.57;;;;;;;16.46;67.59;101204.66;4935895;29;20212;-76
2023/05/14 08:55:50;;;;;;;5.53;5.13;;;;;;;16.57;68.07;101208.72;4935141;29;20272;-75
2023/05/14 08:58:17;;;;;;;4.50;4.20;;;;;;;16.62;65.87;101241.94;4925204;29;20272;-76
2023/05/14 09:00:43;;;;;;;4.50;4.20;;;;;;;16.66;65.95;101266.44;4926501;29;20204;-76
2023/05/14 09:03:10;;;;;;;4.40;4.10;;;;;;;16.71;66.21;101280.34;4925144;29;20205;-76
2023/05/14 09:05:39;;;;;;;3.93;3.73;;;;;;;16.76;64.83;101293.38;4926477;29;20209;-76
2023/05/14 09:08:05;;;;;;;3.90;3.60;;;;;;;16.81;64.80;101307.31;4930244;29;20271;-76
2023/05/14 09:10:32;;;;;;;4.03;3.73;;;;;;;16.85;66.34;101307.19;4935561;29;20219;-76
2023/05/14 09:12:58;;;;;;;3.70;3.50;;;;;;;16.91;64.06;101315.78;4935369;29;20212;-76
2023/05/14 09:15:28;;;;;;;4.47;4.07;;;;;;;16.96;63.71;101340.25;4935388;29;20235;-76
2023/05/14 09:17:55;;;;;;;4.07;3.80;;;;;;;17.01;63.51;101346.28;4934882;29;20723;-77
2023/05/14 09:20:22;;;;;;;4.70;4.30;;;;;;;17.03;64.76;101334.75;4935201;29;20349;-76
2023/05/14 09:22:54;;;;;;;4.13;3.83;;;;;;;17.12;64.44;101299.28;4935214;29;20210;-76
2023/05/14 09:25:20;;;;;;;4.40;4.00;;;;;;;17.19;62.34;101331.63;4935261;29;20228;-76
2023/05/14 09:27:49;;;;;;;3.70;3.50;;;;;;;17.26;62.66;101360.41;4934934;29;20229;-76
2023/05/14 09:30:16;;;;;;;4.27;3.97;;;;;;;17.32;63.61;101343.50;4935061;29;20216;-76
2023/05/14 09:32:44;;;;;;;4.10;3.80;;;;;;;17.37;62.29;101359.19;4934886;29;20720;-76
2023/05/14 09:35:13;;;;;;;4.70;4.40;;;;;;;17.43;63.33;101356.34;4934994;29;20236;-77
2023/05/14 09:37:42;;;;;;;4.00;3.70;;;;;;;17.49;63.42;101339.47;4935245;29;20225;-76
2023/05/14 09:40:10;;;;;;;4.60;4.20;;;;;;;17.58;61.12;101358.50;4935013;29;20575;-76
2023/05/14 09:42:37;;;;;;;4.53;4.23;;;;;;;17.65;61.71;101380.28;4935052;29;20249;-76
2023/05/14 09:45:04;;;;;;;4.60;4.30;;;;;;;17.67;63.38;101347.59;4935178;29;20209;-76
2023/05/14 09:47:31;;;;;;;4.97;4.57;;;;;;;17.76;60.98;101342.91;4932916;29;20221;-76
2023/05/14 09:49:57;;;;;;;4.73;4.43;;;;;;;17.83;58.43;101418.41;4934714;29;20209;-76
2023/05/14 09:52:25;;;;;;;7.00;6.40;;;;;;;17.90;57.85;101446.38;4934530;29;20588;-76
2023/05/14 09:54:52;;;;;;;6.50;6.10;;;;;;;17.98;56.92;101493.69;4934652;29;20671;-76
2023/05/14 09:57:20;;;;;;;5.17;4.87;;;;;;;18.06;57.77;101507.50;4956476;23;20239;-76
2023/05/14 09:59:47;;;;;;;4.93;4.53;;;;;;;18.17;57.73;101499.19;4972654;28;20216;-76
2023/05/14 10:02:21;;;;;;;4.60;4.20;;;;;;;18.21;57.88;101506.97;4972749;28;20685;-76
2023/05/14 10:04:48;;;;;;;4.90;4.50;;;;;;;18.27;61.26;101429.25;4972375;28;20208;-76
2023/05/14 10:07:17;;;;;;;5.03;4.63;;;;;;;18.37;60.36;101384.84;4973074;28;20627;-76
2023/05/14 10:09:45;;;;;;;5.10;4.70;;;;;;;18.53;56.69;101432.75;4972988;28;20267;-76
2023/05/14 10:12:15;;;;;;;5.10;4.70;;;;;;;18.65;56.18;101498.41;4972673;28;20720;-76
2023/05/14 10:14:48;;;;;;;5.30;4.90;;;;;;;18.76;55.31;101519.19;4972708;28;20627;-76
2023/05/14 10:17:17;;;;;;;5.27;4.90;;;;;;;18.83;54.32;101539.28;4972734;28;20232;-76
2023/05/14 10:19:50;;;;;;;5.73;5.27;;;;;;;18.89;55.25;101535.50;4972455;28;20209;-76
2023/05/14 10:22:22;;;;;;;7.27;4.60;;;;;;;18.95;56.22;101525.59;4972970;28;20211;-76
2023/05/14 10:24:51;;;;;;;6.30;5.70;;;;;;;19.04;53.14;101509.34;4973030;28;20243;-76
2023/05/14 10:27:18;;;;;;;4.87;4.33;;;;;;;19.07;51.76;101601.03;4972820;28;20299;-76
2023/05/14 10:29:53;;;;;;;4.90;4.50;;;;;;;19.11;51.10;101649.41;4972722;28;20275;-76
2023/05/14 10:32:20;;;;;;;4.33;4.03;;;;;;;19.15;52.55;101659.00;4972756;28;20211;-76
2023/05/14 10:34:48;;;;;;;4.63;4.33;;;;;;;19.15;53.88;101651.91;4972573;28;20208;-76
2023/05/14 10:37:16;;;;;;;4.57;4.27;;;;;;;19.22;52.35;101628.72;4972414;28;20258;-76
2023/05/14 10:39:44;;;;;;;4.60;4.30;;;;;;;19.30;53.49;101620.50;4972700;28;20204;-75
2023/05/14 10:42:12;;;;;;;4.93;4.50;;;;;;;19.40;51.71;101621.88;4972078;28;20268;-76
2023/05/14 10:44:47;;;;;;;4.90;4.60;;;;;;;19.40;50.48;101643.94;4971985;28;20405;-76
2023/05/14 10:47:14;;;;;;;4.43;4.13;;;;;;;19.36;50.42;101674.09;4972568;28;20215;-75
2023/05/14 10:49:42;;;;;;;5.07;4.77;;;;;;;19.31;55.50;101643.44;4972050;28;20212;-76
2023/05/14 10:52:08;;;;;;;5.20;4.80;;;;;;;19.38;54.30;101544.28;4972206;28;20208;-76
2023/05/14 10:54:35;;;;;;;5.23;4.77;;;;;;;19.47;53.75;101503.38;4972632;28;20208;-76
2023/05/14 10:57:01;;;;;;;5.03;4.73;;;;;;;19.58;50.69;101538.22;4972243;28;20274;-76
2023/05/14 10:59:28;;;;;;;4.90;4.57;;;;;;;19.65;48.84;101625.34;4972702;28;20279;-76
2023/05/14 11:01:57;;;;;;;4.40;4.20;;;;;;;19.79;47.28;101698.19;4972528;28;20259;-76
2023/05/14 11:04:23;;;;;;;5.73;4.17;;;;;;;19.87;47.24;101748.25;4972384;28;20401;-76
2023/05/14 11:06:53;;;;;;;4.37;4.03;;;;;;;19.91;47.90;101761.31;4972378;28;20348;-76
2023/05/14 11:09:21;;;;;;;4.57;4.17;;;;;;;20.01;47.84;101768.00;4975622;28;20283;-76
2023/05/14 11:11:47;;;;;;;4.30;4.00;;;;;;;20.11;47.97;101755.28;4976057;28;20210;-76
2023/05/14 11:14:14;;;;;;;4.20;3.90;;;;;;;20.19;46.60;101763.81;4976075;28;20208;-76
2023/05/14 11:16:41;;;;;;;4.50;4.10;;;;;;;20.30;47.64;101804.97;4976194;28;20278;-76
2023/05/14 11:19:08;;;;;;;5.50;4.30;;;;;;;20.42;46.54;101775.34;4975934;28;20228;-75
2023/05/14 11:21:35;;;;;;;3.70;3.40;;;;;;;20.59;47.46;101777.34;4975696;28;20212;-76
2023/05/14 11:24:03;;;;;;;4.50;4.20;;;;;;;20.76;45.91;101758.97;4975668;28;20704;-76
2023/05/14 11:26:31;;;;;;;6.80;6.30;;;;;;;20.98;47.00;101756.28;4975891;28;20433;-76